createdAt,value
2023-05-13T00:01:25.411Z,3.33
2023-05-13T00:02:57.789Z,3.05
2023-05-13T00:04:30.970Z,2.90
2023-05-13T00:06:04.432Z,3.00
2023-05-13T00:07:36.685Z,3.17
2023-05-13T00:09:09.885Z,2.83
2023-05-13T00:10:43.094Z,3.25
2023-05-13T00:12:16.299Z,2.78
2023-05-13T00:13:48.475Z,3.00
2023-05-13T00:15:23.225Z,2.72
2023-05-13T00:16:58.581Z,2.92
2023-05-13T00:18:31.829Z,2.80
2023-05-13T00:20:06.584Z,2.60
2023-05-13T00:23:12.968Z,2.72
2023-05-13T00:24:46.104Z,2.70
2023-05-13T00:26:19.261Z,2.92
2023-05-13T00:27:54.688Z,2.97
2023-05-13T00:29:27.807Z,3.03
2023-05-13T00:31:02.466Z,2.83
2023-05-13T00:32:35.815Z,3.58
2023-05-13T00:34:08.132Z,3.10
2023-05-13T00:35:41.234Z,3.03
2023-05-13T00:37:14.214Z,2.70
2023-05-13T00:38:47.501Z,2.65
2023-05-13T00:40:23.495Z,2.83
2023-05-13T00:41:56.937Z,2.80
2023-05-13T00:43:30.202Z,2.53
2023-05-13T00:45:02.359Z,2.75
2023-05-13T00:46:37.187Z,2.70
2023-05-13T00:49:43.617Z,2.90
2023-05-13T00:51:15.894Z,2.63
2023-05-13T00:52:51.620Z,2.65
2023-05-13T00:54:25.169Z,3.30
2023-05-13T00:55:57.464Z,2.72
2023-05-13T00:57:31.278Z,2.95
2023-05-13T00:59:04.401Z,2.95
2023-05-13T01:00:48.401Z,2.90
2023-05-13T01:02:34.578Z,2.60
2023-05-13T01:04:25.936Z,2.78
2023-05-13T01:06:09.782Z,2.85
2023-05-13T01:08:04.958Z,2.50
2023-05-13T01:09:57.044Z,2.63
2023-05-13T01:11:38.486Z,2.53
2023-05-13T01:13:16.196Z,3.08
2023-05-13T01:14:58.938Z,2.80
2023-05-13T01:16:41.292Z,2.38
2023-05-13T01:18:21.499Z,2.75
2023-05-13T01:19:59.070Z,2.38
2023-05-13T01:21:37.313Z,2.72
2023-05-13T01:23:10.861Z,2.28
2023-05-13T01:24:43.726Z,2.60
2023-05-13T01:26:17.031Z,2.45
2023-05-13T01:27:50.492Z,2.42
2023-05-13T01:29:24.034Z,2.95
2023-05-13T01:30:57.291Z,2.60
2023-05-13T01:32:33.047Z,2.45
2023-05-13T01:34:10.350Z,2.30
2023-05-13T01:35:44.075Z,2.85
2023-05-13T01:37:20.036Z,2.67
2023-05-13T01:38:54.668Z,2.60
2023-05-13T01:40:32.876Z,2.50
2023-05-13T01:42:12.092Z,2.63
2023-05-13T01:43:45.232Z,2.40
2023-05-13T01:45:19.402Z,2.80
2023-05-13T01:46:53.500Z,2.70
2023-05-13T01:48:26.933Z,2.67
2023-05-13T01:50:00.232Z,3.28
2023-05-13T01:51:34.230Z,2.90
2023-05-13T01:53:08.758Z,2.65
2023-05-13T01:54:43.567Z,2.53
2023-05-13T01:56:19.887Z,2.50
2023-05-13T01:57:53.826Z,3.28
2023-05-13T01:59:27.137Z,3.15
2023-05-13T02:01:00.487Z,2.83
2023-05-13T02:02:33.698Z,3.00
2023-05-13T02:04:07.228Z,2.75
2023-05-13T02:05:40.457Z,2.42
2023-05-13T02:07:14.855Z,3.00
2023-05-13T02:08:51.603Z,2.50
2023-05-13T02:10:24.822Z,2.53
2023-05-13T02:11:59.204Z,2.42
2023-05-13T02:13:32.545Z,3.33
2023-05-13T02:15:07.133Z,2.67
2023-05-13T02:16:40.472Z,3.20
2023-05-13T02:18:13.713Z,2.90
2023-05-13T02:19:47.022Z,3.03
2023-05-13T02:21:20.373Z,2.78
2023-05-13T02:22:53.594Z,2.67
2023-05-13T02:24:28.240Z,2.63
2023-05-13T02:26:01.473Z,2.78
2023-05-13T02:27:34.641Z,2.90
2023-05-13T02:29:07.893Z,2.63
2023-05-13T02:30:41.747Z,2.65
2023-05-13T02:32:14.574Z,2.63
2023-05-13T02:33:47.954Z,3.00
2023-05-13T02:35:22.705Z,2.35
2023-05-13T02:36:55.983Z,2.20
2023-05-13T02:38:29.178Z,2.60
2023-05-13T02:40:04.137Z,2.75
2023-05-13T02:41:37.357Z,2.60
2023-05-13T02:43:10.539Z,2.92
2023-05-13T02:44:57.359Z,2.78
2023-05-13T02:46:31.878Z,2.63
2023-05-13T02:48:05.388Z,2.83
2023-05-13T02:49:38.142Z,2.55
2023-05-13T02:51:12.650Z,2.55
2023-05-13T02:52:46.171Z,2.58
2023-05-13T02:54:19.398Z,2.63
2023-05-13T02:55:54.314Z,2.50
2023-05-13T02:57:30.951Z,2.38
2023-05-13T02:59:04.718Z,2.28
2023-05-13T03:00:38.012Z,2.95
2023-05-13T03:02:12.125Z,2.67
2023-05-13T03:03:45.486Z,2.42
2023-05-13T03:05:18.610Z,2.30
2023-05-13T03:06:52.896Z,2.92
2023-05-13T03:08:26.004Z,2.60
2023-05-13T03:09:59.273Z,3.13
2023-05-13T03:11:33.785Z,2.85
2023-05-13T03:13:06.952Z,2.90
2023-05-13T03:14:40.017Z,2.83
2023-05-13T03:16:13.387Z,2.75
2023-05-13T03:17:46.592Z,2.88
2023-05-13T03:19:19.019Z,2.60
2023-05-13T03:20:52.429Z,2.90
2023-05-13T03:22:25.701Z,2.60
2023-05-13T03:23:59.176Z,3.10
2023-05-13T03:25:31.545Z,2.65
2023-05-13T03:27:06.859Z,2.70
2023-05-13T03:28:40.222Z,2.90
2023-05-13T03:30:14.554Z,2.90
2023-05-13T03:31:56.558Z,2.40
2023-05-13T03:33:29.895Z,2.42
2023-05-13T03:35:04.523Z,2.40
2023-05-13T03:36:39.078Z,2.83
2023-05-13T03:38:12.655Z,3.00
2023-05-13T03:39:50.281Z,2.83
2023-05-13T03:41:23.533Z,2.90
2023-05-13T03:42:58.206Z,2.88
2023-05-13T03:44:31.409Z,2.80
2023-05-13T03:46:04.632Z,2.42
2023-05-13T03:47:39.090Z,2.90
2023-05-13T03:49:15.728Z,2.65
2023-05-13T03:50:49.003Z,2.72
2023-05-13T03:52:23.748Z,2.75
2023-05-13T03:53:56.921Z,3.13
2023-05-13T03:55:30.556Z,2.67
2023-05-13T03:57:03.890Z,3.10
2023-05-13T03:58:38.743Z,3.30
2023-05-13T04:00:14.323Z,2.90
2023-05-13T04:01:50.101Z,2.63
2023-05-13T04:03:22.965Z,2.78
2023-05-13T04:04:56.220Z,2.75
2023-05-13T04:06:29.515Z,2.55
2023-05-13T04:08:02.668Z,3.30
2023-05-13T04:09:35.904Z,3.17
2023-05-13T04:11:09.305Z,2.97
2023-05-13T04:12:42.630Z,3.75
2023-05-13T04:14:17.221Z,3.10
2023-05-13T04:15:50.518Z,3.42
2023-05-13T04:17:23.679Z,2.95
2023-05-13T04:18:57.561Z,3.17
2023-05-13T04:20:29.941Z,3.38
2023-05-13T04:22:03.278Z,2.97
2023-05-13T04:23:36.798Z,3.20
2023-05-13T04:25:11.003Z,3.00
2023-05-13T04:26:44.169Z,2.80
2023-05-13T04:28:17.982Z,3.28
2023-05-13T04:29:51.516Z,3.13
2023-05-13T04:31:25.130Z,3.15
2023-05-13T04:32:57.667Z,3.30
2023-05-13T04:34:30.920Z,3.33
2023-05-13T04:36:03.816Z,3.22
2023-05-13T04:37:37.260Z,3.03
2023-05-13T04:39:12.846Z,3.15
2023-05-13T04:40:47.239Z,3.08
2023-05-13T04:42:23.444Z,3.40
2023-05-13T04:43:56.710Z,3.03
2023-05-13T04:45:31.625Z,3.08
2023-05-13T04:47:05.282Z,3.30
2023-05-13T04:48:38.793Z,3.50
2023-05-13T04:50:12.571Z,3.30
2023-05-13T04:51:46.166Z,3.50
2023-05-13T04:53:20.744Z,3.25
2023-05-13T04:54:54.405Z,3.40
2023-05-13T04:56:27.600Z,3.17
2023-05-13T04:58:01.230Z,3.25
2023-05-13T04:59:35.053Z,3.33
2023-05-13T05:01:09.561Z,3.17
2023-05-13T05:02:42.899Z,3.10
2023-05-13T05:04:16.165Z,3.45
2023-05-13T05:05:49.612Z,3.30
2023-05-13T05:07:23.252Z,4.10
2023-05-13T05:10:31.312Z,3.28
2023-05-13T05:12:08.056Z,3.20
2023-05-13T05:13:42.822Z,3.10
2023-05-13T05:15:16.429Z,4.10
2023-05-13T05:16:54.065Z,3.40
2023-05-13T05:18:27.569Z,3.28
2023-05-13T05:20:00.049Z,3.22
2023-05-13T05:21:33.614Z,3.78
2023-05-13T05:23:07.230Z,3.35
2023-05-13T05:24:40.545Z,3.70
2023-05-13T05:26:13.770Z,3.95
2023-05-13T05:27:49.280Z,4.13
2023-05-13T05:29:21.857Z,3.78
2023-05-13T05:30:55.503Z,3.40
2023-05-13T05:32:33.809Z,3.38
2023-05-13T05:34:08.734Z,3.58
2023-05-13T05:35:41.571Z,4.07
2023-05-13T05:37:17.854Z,3.80
2023-05-13T05:38:51.084Z,3.83
2023-05-13T05:40:24.573Z,3.67
2023-05-13T05:41:57.742Z,4.00
2023-05-13T05:43:31.534Z,3.75
2023-05-13T05:45:05.225Z,3.60
2023-05-13T05:46:38.590Z,3.03
2023-05-13T05:48:14.295Z,3.22
2023-05-13T05:49:47.429Z,3.40
2023-05-13T05:51:21.544Z,4.18
2023-05-13T05:52:55.500Z,4.03
2023-05-13T05:54:29.188Z,3.78
2023-05-13T05:56:02.385Z,3.70
2023-05-13T05:57:36.036Z,4.20
2023-05-13T05:59:09.274Z,4.00
2023-05-13T06:00:42.487Z,3.58
2023-05-13T06:02:15.802Z,3.67
2023-05-13T06:03:53.010Z,4.05
2023-05-13T06:05:28.125Z,3.92
2023-05-13T06:07:01.435Z,4.03
2023-05-13T06:08:34.945Z,3.28
2023-05-13T06:10:09.215Z,3.55
2023-05-13T06:11:42.539Z,3.53
2023-05-13T06:13:16.260Z,3.20
2023-05-13T06:14:49.559Z,4.28
2023-05-13T06:16:22.727Z,3.80
2023-05-13T06:17:55.966Z,3.92
2023-05-13T06:19:30.464Z,3.78
2023-05-13T06:21:03.908Z,3.88
2023-05-13T06:22:37.162Z,3.80
2023-05-13T06:24:10.699Z,4.10
2023-05-13T06:25:42.837Z,3.45
2023-05-13T06:27:16.117Z,3.88
2023-05-13T06:28:49.671Z,4.32
2023-05-13T06:30:23.522Z,4.22
2023-05-13T06:31:57.004Z,3.60
2023-05-13T06:33:30.236Z,4.50
2023-05-13T06:35:05.285Z,4.40
2023-05-13T06:36:38.467Z,4.68
2023-05-13T06:38:16.462Z,4.90
2023-05-13T06:39:49.756Z,4.40
2023-05-13T06:41:23.953Z,4.28
2023-05-13T06:42:58.411Z,4.57
2023-05-13T06:44:36.894Z,5.38
2023-05-13T06:46:12.111Z,4.38
2023-05-13T06:47:45.392Z,4.70
2023-05-13T06:49:18.614Z,5.00
2023-05-13T06:50:53.142Z,5.22
2023-05-13T06:52:25.288Z,4.45
2023-05-13T06:53:58.439Z,5.10
2023-05-13T06:55:30.947Z,4.45
2023-05-13T06:57:05.597Z,4.45
2023-05-13T06:58:38.799Z,4.78
2023-05-13T07:00:14.004Z,4.40
2023-05-13T07:01:47.149Z,4.40
2023-05-13T07:03:20.405Z,4.28
2023-05-13T07:04:53.809Z,4.05
2023-05-13T07:06:28.357Z,4.68
2023-05-13T07:08:06.400Z,4.30
2023-05-13T07:09:39.535Z,3.83
2023-05-13T07:11:12.788Z,4.65
2023-05-13T07:12:46.022Z,4.63
2023-05-13T07:14:19.853Z,4.78
2023-05-13T07:15:53.027Z,4.93
2023-05-13T07:17:26.409Z,5.13
2023-05-13T07:18:59.750Z,4.97
2023-05-13T07:20:33.001Z,4.82
2023-05-13T07:22:07.595Z,4.78
2023-05-13T07:23:41.989Z,4.90
2023-05-13T07:25:16.332Z,4.68
2023-05-13T07:26:49.460Z,4.80
2023-05-13T07:28:22.619Z,4.70
2023-05-13T07:29:55.843Z,4.60
2023-05-13T07:31:29.132Z,4.03
2023-05-13T07:33:02.524Z,4.55
2023-05-13T07:34:52.781Z,4.23
2023-05-13T07:36:26.208Z,4.97
2023-05-13T07:38:00.794Z,5.03
2023-05-13T07:39:33.922Z,4.75
2023-05-13T07:41:07.076Z,4.78
2023-05-13T07:42:40.652Z,5.70
2023-05-13T07:44:13.758Z,5.00
2023-05-13T07:45:46.932Z,4.57
2023-05-13T07:47:20.478Z,4.47
2023-05-13T07:48:53.817Z,4.35
2023-05-13T07:50:27.114Z,4.22
2023-05-13T07:52:00.327Z,4.35
2023-05-13T07:53:35.802Z,4.22
2023-05-13T07:55:10.707Z,4.40
2023-05-13T07:56:46.461Z,4.22
2023-05-13T07:58:20.165Z,4.88
2023-05-13T07:59:54.089Z,4.95
2023-05-13T08:01:28.212Z,4.18
2023-05-13T08:03:01.476Z,4.43
2023-05-13T08:04:34.862Z,4.75
2023-05-13T08:06:08.359Z,4.40
2023-05-13T08:07:41.616Z,4.15
2023-05-13T08:09:16.157Z,4.25
2023-05-13T08:10:49.331Z,4.55
2023-05-13T08:12:22.430Z,4.20
2023-05-13T08:13:55.732Z,5.10
2023-05-13T08:15:29.310Z,4.57
2023-05-13T08:17:02.903Z,4.35
2023-05-13T08:18:36.510Z,4.50
2023-05-13T08:20:11.265Z,4.50
2023-05-13T08:21:44.426Z,4.45
2023-05-13T08:23:17.618Z,3.90
2023-05-13T08:24:52.101Z,3.60
2023-05-13T08:26:25.382Z,4.43
2023-05-13T08:27:58.858Z,4.05
2023-05-13T08:29:31.967Z,3.95
2023-05-13T08:31:05.530Z,4.43
2023-05-13T08:32:38.757Z,4.20
2023-05-13T08:34:11.925Z,3.58
2023-05-13T08:35:45.254Z,3.45
2023-05-13T08:37:18.358Z,3.67
2023-05-13T08:38:51.577Z,4.03
2023-05-13T08:40:26.264Z,3.28
2023-05-13T08:42:00.054Z,3.50
2023-05-13T08:43:34.412Z,3.65
2023-05-13T08:45:10.553Z,4.30
2023-05-13T08:46:52.082Z,3.63
2023-05-13T08:48:26.160Z,3.55
2023-05-13T08:50:00.316Z,2.97
2023-05-13T08:51:33.553Z,3.85
2023-05-13T08:53:08.347Z,2.90
2023-05-13T08:54:44.571Z,3.33
2023-05-13T08:56:19.138Z,3.60
2023-05-13T08:57:52.738Z,3.30
2023-05-13T08:59:25.894Z,3.42
2023-05-13T09:00:59.806Z,3.58
2023-05-13T09:02:32.165Z,3.10
2023-05-13T09:04:10.112Z,3.38
2023-05-13T09:05:45.113Z,3.35
2023-05-13T09:07:18.396Z,3.20
2023-05-13T09:08:52.256Z,3.63
2023-05-13T09:10:25.437Z,3.10
2023-05-13T09:12:00.167Z,3.20
2023-05-13T09:13:33.443Z,3.67
2023-05-13T09:15:10.477Z,3.28
2023-05-13T09:16:43.951Z,3.30
2023-05-13T09:18:18.924Z,3.33
2023-05-13T09:19:52.687Z,3.28
2023-05-13T09:21:27.950Z,3.08
2023-05-13T09:23:05.652Z,3.70
2023-05-13T09:24:38.783Z,3.13
2023-05-13T09:26:28.523Z,3.80
2023-05-13T09:28:05.304Z,3.55
2023-05-13T09:29:39.328Z,3.40
2023-05-13T09:31:12.495Z,3.40
2023-05-13T09:32:45.795Z,3.17
2023-05-13T09:34:30.892Z,3.95
2023-05-13T09:36:06.194Z,3.72
2023-05-13T09:37:39.406Z,3.92
2023-05-13T09:39:13.486Z,3.85
2023-05-13T09:40:52.686Z,3.70
2023-05-13T09:42:25.924Z,3.53
2023-05-13T09:44:04.782Z,3.83
2023-05-13T09:45:38.059Z,3.65
2023-05-13T09:47:13.514Z,3.30
2023-05-13T09:48:46.926Z,3.83
2023-05-13T09:50:20.339Z,3.40
2023-05-13T09:51:53.931Z,3.60
2023-05-13T09:53:28.343Z,3.63
2023-05-13T09:55:04.887Z,4.53
2023-05-13T09:56:38.364Z,3.38
2023-05-13T09:58:13.062Z,3.70
2023-05-13T09:59:47.790Z,3.72
2023-05-13T10:01:22.076Z,3.40
2023-05-13T10:02:55.334Z,3.58
2023-05-13T10:04:29.159Z,3.78
2023-05-13T10:06:04.545Z,4.38
2023-05-13T10:07:39.975Z,3.60
2023-05-13T10:09:13.236Z,3.53
2023-05-13T10:10:51.311Z,3.92
2023-05-13T10:12:27.733Z,3.60
2023-05-13T10:14:04.569Z,4.00
2023-05-13T10:15:49.787Z,3.80
2023-05-13T10:17:26.174Z,3.80
2023-05-13T10:18:59.928Z,4.43
2023-05-13T10:20:33.645Z,3.72
2023-05-13T10:22:07.893Z,3.13
2023-05-13T10:23:41.275Z,3.50
2023-05-13T10:25:14.373Z,3.25
2023-05-13T10:26:48.870Z,3.63
2023-05-13T10:28:22.284Z,3.65
2023-05-13T10:29:57.469Z,4.18
2023-05-13T10:31:32.699Z,3.83
2023-05-13T10:33:05.450Z,3.05
2023-05-13T10:34:40.943Z,3.80
2023-05-13T10:36:41.244Z,4.03
2023-05-13T10:38:22.368Z,3.50
2023-05-13T10:41:03.230Z,3.17
2023-05-13T10:42:43.009Z,3.20
2023-05-13T10:44:16.243Z,3.30
2023-05-13T10:45:52.032Z,4.30
2023-05-13T10:47:27.846Z,3.33
2023-05-13T10:49:01.510Z,3.25
2023-05-13T10:50:38.858Z,3.63
2023-05-13T10:52:15.774Z,3.67
2023-05-13T10:53:51.999Z,14.13
2023-05-13T10:55:27.760Z,5.32
2023-05-13T10:57:02.328Z,4.03
2023-05-13T11:00:16.439Z,3.83
2023-05-13T11:01:50.777Z,4.50
2023-05-13T11:03:31.142Z,4.68
2023-05-13T11:05:06.958Z,3.92
2023-05-13T11:06:42.651Z,4.18
2023-05-13T11:08:41.902Z,5.45
2023-05-13T11:10:28.902Z,4.68
2023-05-13T11:12:04.965Z,5.72
2023-05-13T11:13:38.215Z,4.32
2023-05-13T11:15:23.259Z,4.15
2023-05-13T11:17:13.325Z,3.05
2023-05-13T11:18:49.057Z,2.95
2023-05-13T11:20:25.615Z,3.03
2023-05-13T11:22:06.344Z,3.13
2023-05-13T11:23:53.548Z,3.00
2023-05-13T11:25:28.598Z,3.08
2023-05-13T11:27:16.367Z,3.03
2023-05-13T11:29:04.543Z,2.97
2023-05-13T11:30:36.760Z,2.60
2023-05-13T11:32:10.019Z,2.95
2023-05-13T11:34:10.187Z,3.13
2023-05-13T11:35:43.771Z,3.08
2023-05-13T11:37:18.132Z,2.78
2023-05-13T11:38:50.333Z,2.80
2023-05-13T11:40:24.619Z,2.80
2023-05-13T11:42:01.263Z,2.92
2023-05-13T11:43:36.587Z,3.13
2023-05-13T11:45:11.467Z,2.78
2023-05-13T11:46:56.953Z,2.50
2023-05-13T11:48:30.095Z,2.88
2023-05-13T11:50:19.273Z,2.83
2023-05-13T11:51:51.553Z,3.17
2023-05-13T11:53:24.701Z,2.90
2023-05-13T11:54:59.436Z,2.85
2023-05-13T11:56:31.731Z,3.20
2023-05-13T11:58:05.420Z,2.92
2023-05-13T11:59:47.970Z,3.03
2023-05-13T12:01:22.086Z,3.00
2023-05-13T12:02:56.041Z,2.95
2023-05-13T12:04:31.307Z,3.55
2023-05-13T12:06:06.441Z,2.85
2023-05-13T12:07:40.533Z,2.83
2023-05-13T12:09:13.392Z,2.33
2023-05-13T12:10:46.663Z,2.30
2023-05-13T12:12:21.163Z,2.17
2023-05-13T12:13:54.438Z,2.45
2023-05-13T12:15:27.898Z,2.90
2023-05-13T12:17:01.821Z,2.22
2023-05-13T12:18:35.076Z,2.58
2023-05-13T12:20:15.339Z,2.38
2023-05-13T12:21:52.036Z,2.40
2023-05-13T12:23:25.376Z,2.90
2023-05-13T12:25:00.957Z,2.55
2023-05-13T12:26:34.576Z,2.40
2023-05-13T12:28:09.160Z,2.60
2023-05-13T12:29:43.412Z,2.30
2023-05-13T12:31:18.405Z,2.65
2023-05-13T12:32:51.246Z,2.97
2023-05-13T12:34:32.705Z,2.53
2023-05-13T12:36:20.999Z,2.78
2023-05-13T12:38:03.049Z,2.92
2023-05-13T12:39:36.300Z,2.90
2023-05-13T12:41:13.824Z,2.80
2023-05-13T12:42:47.070Z,2.60
2023-05-13T12:44:20.296Z,2.38
2023-05-13T12:45:56.459Z,1.90
2023-05-13T12:47:29.936Z,1.70
2023-05-13T12:49:05.844Z,1.50
2023-05-13T12:50:39.155Z,1.80
2023-05-13T12:52:12.348Z,1.88
2023-05-13T12:53:46.833Z,2.22
2023-05-13T12:56:53.814Z,1.80
2023-05-13T12:58:26.996Z,1.50
2023-05-13T13:00:00.147Z,1.45
2023-05-13T13:01:33.571Z,1.80
2023-05-13T13:03:08.313Z,1.52
2023-05-13T13:04:41.927Z,1.80
2023-05-13T13:06:16.393Z,1.50
2023-05-13T13:07:49.799Z,1.40
2023-05-13T13:09:24.267Z,1.45
2023-05-13T13:10:57.635Z,1.25
2023-05-13T13:12:30.768Z,1.50
2023-05-13T13:14:04.664Z,1.80
2023-05-13T13:15:38.523Z,1.25
2023-05-13T13:17:11.872Z,1.40
2023-05-13T13:18:46.006Z,1.38
2023-05-13T13:20:19.387Z,1.80
2023-05-13T13:21:52.562Z,1.42
2023-05-13T13:23:25.848Z,1.40
2023-05-13T13:25:00.380Z,1.38
2023-05-13T13:26:33.600Z,1.25
2023-05-13T13:28:06.905Z,1.30
2023-05-13T13:29:40.262Z,1.40
2023-05-13T13:31:13.681Z,1.30
2023-05-13T13:32:46.078Z,1.67
2023-05-13T13:34:19.368Z,1.52
2023-05-13T13:35:52.917Z,1.50
2023-05-13T13:37:26.150Z,1.85
2023-05-13T13:38:59.294Z,1.92
2023-05-13T13:40:33.916Z,1.50
2023-05-13T13:42:08.377Z,1.80
2023-05-13T13:43:41.664Z,1.40
2023-05-13T13:45:15.479Z,1.45
2023-05-13T13:46:48.773Z,1.75
2023-05-13T13:48:22.617Z,1.60
2023-05-13T13:49:55.754Z,1.50
2023-05-13T13:51:28.995Z,1.60
2023-05-13T13:53:02.193Z,1.60
2023-05-13T13:54:35.746Z,1.63
2023-05-13T13:56:10.304Z,1.60
2023-05-13T13:59:19.365Z,1.77
2023-05-13T14:00:53.665Z,1.60
2023-05-13T14:02:26.975Z,1.75
2023-05-13T14:04:11.965Z,2.40
2023-05-13T14:05:45.444Z,2.15
2023-05-13T14:07:18.845Z,2.65
2023-05-13T14:08:52.138Z,2.90
2023-05-13T14:10:25.465Z,2.83
2023-05-13T14:12:00.336Z,2.60
2023-05-13T14:13:33.664Z,2.40
2023-05-13T14:15:08.813Z,2.40
2023-05-13T14:16:42.050Z,2.38
2023-05-13T14:18:15.168Z,2.30
2023-05-13T14:19:51.584Z,2.72
2023-05-13T14:21:24.762Z,2.00
2023-05-13T14:22:57.924Z,2.47
2023-05-13T14:24:32.092Z,2.50
2023-05-13T14:26:07.268Z,2.55
2023-05-13T14:27:41.816Z,2.17
2023-05-13T14:32:20.121Z,2.15
2023-05-13T14:33:53.430Z,2.40
2023-05-13T14:35:26.597Z,2.30
2023-05-13T14:36:58.739Z,2.25
2023-05-13T14:38:32.138Z,1.95
2023-05-13T14:40:05.355Z,2.08
2023-05-13T14:41:42.906Z,1.95
2023-05-13T14:43:17.594Z,1.90
2023-05-13T14:44:50.729Z,2.00
2023-05-13T14:46:23.923Z,2.08
2023-05-13T14:47:57.304Z,2.03
2023-05-13T14:49:30.525Z,2.00
2023-05-13T14:51:18.043Z,1.88
2023-05-13T14:52:51.223Z,2.20
2023-05-13T14:54:24.495Z,1.70
2023-05-13T14:55:57.939Z,2.13
2023-05-13T14:57:31.239Z,2.15
2023-05-13T14:59:05.807Z,1.90
2023-05-13T15:00:39.585Z,1.90
2023-05-13T15:02:13.747Z,2.20
2023-05-13T15:03:47.029Z,2.70
2023-05-13T15:05:19.262Z,2.00
2023-05-13T15:06:52.669Z,1.95
2023-05-13T15:08:26.560Z,2.00
2023-05-13T15:09:59.778Z,2.28
2023-05-13T15:11:33.220Z,2.20
2023-05-13T15:13:06.463Z,2.10
2023-05-13T15:14:40.995Z,2.15
2023-05-13T15:16:14.210Z,2.03
2023-05-13T15:17:47.567Z,2.17
2023-05-13T15:19:27.026Z,2.22
2023-05-13T15:21:00.167Z,2.28
2023-05-13T15:22:34.222Z,2.03
2023-05-13T15:24:07.899Z,2.15
2023-05-13T15:25:40.229Z,2.17
2023-05-13T15:27:14.164Z,2.63
2023-05-13T15:28:49.834Z,2.08
2023-05-13T15:30:25.326Z,2.20
2023-05-13T15:31:59.531Z,2.15
2023-05-13T15:33:33.627Z,2.67
2023-05-13T15:35:08.117Z,2.22
2023-05-13T15:36:41.307Z,2.08
2023-05-13T15:38:15.046Z,2.00
2023-05-13T15:39:48.342Z,1.92
2023-05-13T15:41:21.602Z,2.20
2023-05-13T15:42:54.746Z,2.15
2023-05-13T15:44:28.158Z,2.33
2023-05-13T15:46:02.951Z,2.30
2023-05-13T15:47:36.038Z,2.47
2023-05-13T15:49:10.096Z,1.98
2023-05-13T15:50:43.392Z,2.45
2023-05-13T15:52:15.817Z,2.60
2023-05-13T15:53:49.173Z,2.08
2023-05-13T15:55:22.860Z,2.33
2023-05-13T15:56:58.805Z,2.33
2023-05-13T15:58:31.936Z,2.42
2023-05-13T16:00:06.470Z,2.28
2023-05-13T16:01:41.661Z,2.17
2023-05-13T16:03:16.926Z,2.25
2023-05-13T16:04:50.242Z,2.70
2023-05-13T16:06:23.438Z,2.08
2023-05-13T16:07:57.486Z,2.30
2023-05-13T16:09:30.616Z,2.10
2023-05-13T16:11:03.760Z,2.50
2023-05-13T16:12:37.164Z,2.60
2023-05-13T16:14:10.486Z,2.17
2023-05-13T16:15:43.738Z,2.15
2023-05-13T16:17:18.176Z,2.55
2023-05-13T16:18:52.071Z,2.63
2023-05-13T16:20:25.888Z,2.47
2023-05-13T16:21:58.984Z,2.30
2023-05-13T16:23:32.099Z,2.42
2023-05-13T16:25:08.096Z,2.67
2023-05-13T16:26:41.534Z,2.70
2023-05-13T16:28:14.751Z,2.58
2023-05-13T16:29:47.991Z,2.50
2023-05-13T16:31:21.201Z,2.45
2023-05-13T16:32:55.787Z,2.60
2023-05-13T16:34:31.417Z,2.42
2023-05-13T16:36:05.556Z,2.38
2023-05-13T16:37:38.800Z,2.72
2023-05-13T16:39:11.899Z,2.30
2023-05-13T16:40:45.241Z,2.50
2023-05-13T16:42:19.279Z,2.90
2023-05-13T16:43:52.348Z,2.40
2023-05-13T16:45:25.640Z,2.72
2023-05-13T16:46:58.744Z,2.83
2023-05-13T16:48:33.406Z,2.70
2023-05-13T16:51:42.432Z,2.45
2023-05-13T16:53:15.611Z,2.40
2023-05-13T16:54:48.805Z,2.42
2023-05-13T16:56:22.110Z,1.90
2023-05-13T16:57:55.322Z,2.20
2023-05-13T16:59:28.547Z,2.55
2023-05-13T17:01:01.766Z,2.10
2023-05-13T17:02:35.149Z,1.98
2023-05-13T17:04:09.802Z,2.50
2023-05-13T17:07:16.093Z,2.30
2023-05-13T17:08:49.514Z,2.03
2023-05-13T17:10:23.016Z,2.00
2023-05-13T17:11:56.538Z,2.20
2023-05-13T17:13:29.774Z,2.22
2023-05-13T17:15:04.009Z,2.03
2023-05-13T17:16:38.296Z,2.22
2023-05-13T17:18:11.562Z,2.20
2023-05-13T17:19:46.030Z,2.60
2023-05-13T17:21:19.301Z,2.20
2023-05-13T17:22:52.415Z,2.05
2023-05-13T17:24:29.176Z,2.25
2023-05-13T17:26:02.494Z,2.00
2023-05-13T17:27:35.637Z,2.40
2023-05-13T17:29:08.934Z,2.60
2023-05-13T17:30:42.144Z,2.25
2023-05-13T17:32:15.313Z,2.97
2023-05-13T17:33:48.588Z,2.30
2023-05-13T17:35:23.140Z,2.33
2023-05-13T17:36:56.338Z,2.15
2023-05-13T17:38:29.522Z,2.47
2023-05-13T17:40:03.773Z,2.20
2023-05-13T17:41:37.061Z,2.30
2023-05-13T17:43:10.325Z,2.65
2023-05-13T17:44:43.435Z,2.30
2023-05-13T17:46:16.864Z,2.50
2023-05-13T17:47:49.979Z,2.75
2023-05-13T17:49:23.281Z,3.00
2023-05-13T17:50:57.793Z,2.55
2023-05-13T17:52:31.061Z,2.20
2023-05-13T17:54:04.462Z,2.40
2023-05-13T17:55:37.662Z,2.33
2023-05-13T17:57:11.521Z,2.35
2023-05-13T17:58:44.864Z,2.25
2023-05-13T18:00:19.122Z,2.40
2023-05-13T18:01:52.462Z,2.67
2023-05-13T18:03:25.706Z,2.33
2023-05-13T18:04:58.960Z,2.60
2023-05-13T18:06:33.588Z,2.42
2023-05-13T18:09:40.533Z,2.50
2023-05-13T18:11:14.109Z,2.53
2023-05-13T18:12:47.266Z,2.95
2023-05-13T18:14:20.516Z,2.60
2023-05-13T18:15:53.752Z,2.53
2023-05-13T18:17:27.526Z,2.45
2023-05-13T18:19:00.822Z,2.28
2023-05-13T18:20:34.720Z,2.72
2023-05-13T18:22:09.508Z,1.92
2023-05-13T18:23:44.101Z,2.35
2023-05-13T18:25:17.505Z,2.90
2023-05-13T18:26:50.939Z,2.33
2023-05-13T18:28:24.336Z,2.15
2023-05-13T18:29:57.579Z,2.40
2023-05-13T18:31:34.551Z,2.40
2023-05-13T18:33:08.038Z,2.67
2023-05-13T18:34:41.347Z,2.60
2023-05-13T18:36:14.821Z,2.72
2023-05-13T18:37:49.415Z,2.45
2023-05-13T18:39:22.842Z,2.10
2023-05-13T18:40:56.085Z,2.30
2023-05-13T18:42:29.574Z,2.63
2023-05-13T18:44:02.980Z,2.30
2023-05-13T18:45:36.502Z,2.78
2023-05-13T18:47:09.719Z,2.53
2023-05-13T18:48:42.884Z,2.40
2023-05-13T18:50:16.073Z,2.40
2023-05-13T18:51:49.309Z,2.60
2023-05-13T18:53:23.912Z,2.40
2023-05-13T18:54:57.167Z,2.40
2023-05-13T18:56:30.945Z,2.40
2023-05-13T18:58:04.156Z,2.25
2023-05-13T18:59:37.301Z,2.60
2023-05-13T19:01:10.663Z,2.60
2023-05-13T19:02:44.281Z,2.58
2023-05-13T19:04:18.265Z,2.30
2023-05-13T19:05:52.031Z,2.40
2023-05-13T19:07:25.326Z,2.30
2023-05-13T19:08:59.804Z,2.05
2023-05-13T19:10:39.081Z,2.72
2023-05-13T19:12:12.989Z,2.17
2023-05-13T19:13:47.696Z,2.70
2023-05-13T19:15:23.338Z,2.55
2023-05-13T19:16:56.933Z,2.60
2023-05-13T19:18:30.142Z,2.42
2023-05-13T19:20:03.370Z,2.50
2023-05-13T19:21:36.999Z,2.95
2023-05-13T19:23:10.531Z,3.10
2023-05-13T19:24:45.282Z,2.53
2023-05-13T19:27:51.703Z,2.88
2023-05-13T19:29:26.005Z,2.20
2023-05-13T19:30:59.328Z,2.42
2023-05-13T19:32:33.022Z,2.20
2023-05-13T19:34:07.523Z,2.70
2023-05-13T19:35:40.806Z,2.75
2023-05-13T19:37:13.934Z,2.90
2023-05-13T19:38:47.174Z,2.70
2023-05-13T19:40:21.823Z,2.80
2023-05-13T19:41:58.695Z,2.83
2023-05-13T19:43:32.168Z,2.55
2023-05-13T19:45:06.483Z,2.60
2023-05-13T19:46:39.941Z,2.70
2023-05-13T19:48:13.678Z,2.53
2023-05-13T19:49:46.946Z,2.70
2023-05-13T19:51:20.183Z,2.80
2023-05-13T19:52:53.945Z,2.65
2023-05-13T19:54:27.435Z,2.75
2023-05-13T19:56:02.437Z,2.45
2023-05-13T19:57:36.531Z,3.05
2023-05-13T19:59:09.620Z,2.42
2023-05-13T20:00:43.901Z,2.50
2023-05-13T20:02:17.250Z,2.35
2023-05-13T20:03:50.719Z,2.45
2023-05-13T20:05:22.930Z,2.70
2023-05-13T20:06:56.213Z,2.55
2023-05-13T20:08:31.449Z,2.60
2023-05-13T20:10:05.490Z,2.70
2023-05-13T20:11:40.020Z,2.25
2023-05-13T20:13:14.328Z,2.60
2023-05-13T20:14:51.607Z,2.30
2023-05-13T20:16:24.778Z,2.45
2023-05-13T20:17:58.391Z,2.20
2023-05-13T20:19:31.772Z,2.58
2023-05-13T20:21:05.195Z,2.58
2023-05-13T20:22:38.406Z,2.40
2023-05-13T20:24:10.853Z,2.42
2023-05-13T20:25:46.535Z,2.50
2023-05-13T20:27:21.141Z,2.20
2023-05-13T20:28:54.298Z,2.28
2023-05-13T20:30:27.446Z,2.40
2023-05-13T20:32:00.739Z,2.33
2023-05-13T20:33:33.973Z,2.40
2023-05-13T20:35:09.067Z,2.50
2023-05-13T20:36:42.249Z,2.30
2023-05-13T20:38:15.675Z,2.15
2023-05-13T20:39:48.888Z,2.13
2023-05-13T20:41:22.158Z,2.65
2023-05-13T20:42:56.731Z,2.30
2023-05-13T20:44:30.068Z,2.17
2023-05-13T20:46:03.393Z,2.38
2023-05-13T20:47:37.234Z,2.40
2023-05-13T20:49:11.554Z,2.35
2023-05-13T20:50:44.870Z,2.40
2023-05-13T20:52:17.371Z,2.40
2023-05-13T20:53:50.586Z,2.40
2023-05-13T20:55:24.110Z,2.20
2023-05-13T20:56:57.406Z,2.40
2023-05-13T20:58:31.997Z,2.63
2023-05-13T21:00:07.194Z,2.38
2023-05-13T21:01:41.385Z,2.47
2023-05-13T21:03:14.628Z,2.20
2023-05-13T21:04:47.906Z,2.13
2023-05-13T21:06:20.962Z,2.33
2023-05-13T21:07:54.038Z,2.30
2023-05-13T21:09:27.119Z,2.00
2023-05-13T21:11:00.191Z,2.20
2023-05-13T21:12:32.358Z,2.33
2023-05-13T21:14:06.786Z,2.80
2023-05-13T21:15:39.943Z,2.60
2023-05-13T21:17:13.060Z,2.70
2023-05-13T21:18:46.218Z,2.03